createdAt,value
2018-04-26T00:01:21.207Z,4.67
2018-04-26T00:03:48.545Z,4.97
2018-04-26T00:06:15.910Z,4.87
2018-04-26T00:08:43.256Z,4.60
2018-04-26T00:11:10.641Z,4.77
2018-04-26T00:13:38.152Z,4.67
2018-04-26T00:16:05.504Z,4.53
2018-04-26T00:18:32.870Z,4.90
2018-04-26T00:21:00.241Z,5.27
2018-04-26T00:23:27.660Z,5.60
2018-04-26T00:25:55.068Z,5.07
2018-04-26T00:28:22.470Z,4.73
2018-04-26T00:30:49.853Z,5.50
2018-04-26T00:33:17.268Z,5.10
2018-04-26T00:35:44.674Z,5.73
2018-04-26T00:38:12.077Z,5.77
2018-04-26T00:40:39.427Z,5.33
2018-04-26T00:43:06.819Z,5.30
2018-04-26T00:45:34.751Z,5.20
2018-04-26T00:48:02.219Z,5.13
2018-04-26T00:50:29.572Z,5.40
2018-04-26T00:52:57.040Z,5.63
2018-04-26T00:55:24.447Z,6.20
2018-04-26T00:57:51.840Z,5.70
2018-04-26T01:00:19.332Z,6.10
2018-04-26T01:02:46.710Z,5.50
2018-04-26T01:05:14.123Z,5.40
2018-04-26T01:07:41.304Z,5.80
2018-04-26T01:10:08.655Z,5.50
2018-04-26T01:12:36.063Z,5.80
2018-04-26T01:15:03.463Z,6.23
2018-04-26T01:17:30.838Z,5.97
2018-04-26T01:19:59.275Z,6.07
2018-04-26T01:22:26.780Z,5.70
2018-04-26T01:24:54.157Z,5.57
2018-04-26T01:27:21.566Z,6.27
2018-04-26T01:29:48.972Z,6.40
2018-04-26T01:32:16.331Z,6.33
2018-04-26T01:34:44.299Z,6.20
2018-04-26T01:37:17.637Z,5.13
2018-04-26T01:39:45.079Z,5.57
2018-04-26T01:42:12.414Z,5.83
2018-04-26T01:44:39.861Z,6.20
2018-04-26T01:47:07.255Z,6.40
2018-04-26T01:49:34.602Z,6.77
2018-04-26T01:52:01.973Z,6.50
2018-04-26T01:54:29.375Z,6.87
2018-04-26T01:56:56.757Z,6.33
2018-04-26T01:59:24.147Z,6.90
2018-04-26T02:01:51.505Z,6.60
2018-04-26T02:04:19.005Z,7.00
2018-04-26T02:06:46.388Z,6.90
2018-04-26T02:09:13.742Z,7.57
2018-04-26T02:11:41.117Z,7.33
2018-04-26T02:14:08.492Z,7.60
2018-04-26T02:16:35.897Z,7.47
2018-04-26T02:19:03.573Z,7.63
2018-04-26T02:21:31.029Z,7.17
2018-04-26T02:23:58.375Z,6.70
2018-04-26T02:26:25.803Z,7.90
2018-04-26T02:28:53.183Z,7.10
2018-04-26T02:31:20.563Z,7.60
2018-04-26T02:33:47.947Z,8.10
2018-04-26T02:36:15.293Z,7.70
2018-04-26T02:38:42.759Z,7.70
2018-04-26T02:41:10.103Z,8.23
2018-04-26T02:43:37.447Z,7.40
2018-04-26T02:46:04.856Z,7.77
2018-04-26T02:48:32.215Z,8.50
2018-04-26T02:50:59.605Z,8.20
2018-04-26T02:53:27.030Z,8.50
2018-04-26T02:55:54.432Z,7.80
2018-04-26T02:58:21.793Z,8.30
2018-04-26T03:00:49.201Z,8.70
2018-04-26T03:03:16.592Z,7.50
2018-04-26T03:05:43.931Z,7.13
2018-04-26T03:08:11.370Z,8.47
2018-04-26T03:10:38.766Z,7.70
2018-04-26T03:13:06.278Z,8.17
2018-04-26T03:15:33.652Z,8.10
2018-04-26T03:18:01.331Z,7.70
2018-04-26T03:20:28.675Z,8.00
2018-04-26T03:22:56.033Z,8.27
2018-04-26T03:25:23.435Z,10.37
2018-04-26T03:27:50.842Z,8.63
2018-04-26T03:30:18.186Z,9.27
2018-04-26T03:32:45.559Z,9.00
2018-04-26T03:35:12.966Z,8.40
2018-04-26T03:37:40.315Z,7.73
2018-04-26T03:40:07.663Z,8.57
2018-04-26T03:42:35.054Z,9.07
2018-04-26T03:45:02.402Z,8.77
2018-04-26T03:47:29.772Z,8.73
2018-04-26T03:49:57.179Z,8.63
2018-04-26T03:52:24.579Z,8.43
2018-04-26T03:54:51.927Z,8.70
2018-04-26T03:57:19.338Z,8.43
2018-04-26T03:59:52.652Z,8.60
2018-04-26T04:02:25.904Z,8.87
2018-04-26T04:04:59.296Z,8.67
2018-04-26T04:07:26.696Z,8.27
2018-04-26T04:09:54.121Z,9.20
2018-04-26T04:12:21.467Z,9.57
2018-04-26T04:14:48.853Z,8.70
2018-04-26T04:17:16.223Z,9.13
2018-04-26T04:19:43.600Z,9.40
2018-04-26T04:22:10.985Z,8.57
2018-04-26T04:24:38.335Z,7.90
2018-04-26T04:27:05.712Z,7.57
2018-04-26T04:29:33.088Z,8.60
2018-04-26T04:32:00.516Z,8.73
2018-04-26T04:34:27.860Z,9.27
2018-04-26T04:36:55.223Z,8.90
2018-04-26T04:39:22.659Z,9.10
2018-04-26T04:41:50.000Z,8.50
2018-04-26T04:44:17.403Z,9.27
2018-04-26T04:46:44.774Z,8.73
2018-04-26T04:49:12.170Z,8.60
2018-04-26T04:51:39.528Z,8.80
2018-04-26T04:54:06.907Z,8.90
2018-04-26T04:56:34.312Z,9.57
2018-04-26T04:59:01.696Z,8.80
2018-04-26T05:01:29.111Z,8.93
2018-04-26T05:03:56.490Z,9.70
2018-04-26T05:06:23.910Z,9.07
2018-04-26T05:08:51.263Z,9.03
2018-04-26T05:11:18.658Z,8.67
2018-04-26T05:13:46.081Z,9.93
2018-04-26T05:16:13.464Z,8.73
2018-04-26T05:18:40.884Z,8.90
2018-04-26T05:21:08.404Z,9.80
2018-04-26T05:23:35.861Z,10.07
2018-04-26T05:26:03.246Z,10.10
2018-04-26T05:28:30.664Z,10.67
2018-04-26T05:30:58.019Z,11.60
2018-04-26T05:33:25.404Z,10.33
2018-04-26T05:35:52.752Z,11.27
2018-04-26T05:38:20.160Z,11.03
2018-04-26T05:40:47.840Z,10.97
2018-04-26T05:43:15.211Z,11.23
2018-04-26T05:45:42.643Z,11.47
2018-04-26T05:48:09.995Z,10.87
2018-04-26T05:50:37.408Z,10.80
2018-04-26T05:53:04.805Z,11.60
2018-04-26T05:55:32.183Z,11.60
2018-04-26T05:57:59.531Z,11.40
2018-04-26T06:00:26.939Z,11.17
2018-04-26T06:02:54.324Z,12.10
2018-04-26T06:05:21.743Z,11.97
2018-04-26T06:07:49.153Z,11.80
2018-04-26T06:10:16.563Z,10.90
2018-04-26T06:12:43.971Z,11.17
2018-04-26T06:15:11.327Z,10.97
2018-04-26T06:17:38.708Z,11.80
2018-04-26T06:20:06.090Z,11.40
2018-04-26T06:22:33.486Z,10.97
2018-04-26T06:25:00.842Z,12.70
2018-04-26T06:27:28.231Z,12.03
2018-04-26T06:29:55.651Z,11.70
2018-04-26T06:32:23.033Z,12.70
2018-04-26T06:34:50.445Z,11.30
2018-04-26T06:37:17.857Z,12.97
2018-04-26T06:39:45.235Z,13.17
2018-04-26T06:42:12.682Z,13.83
2018-04-26T06:44:40.034Z,13.73
2018-04-26T06:47:07.442Z,13.90
2018-04-26T06:49:34.795Z,13.20
2018-04-26T06:52:02.152Z,13.63
2018-04-26T06:54:29.585Z,13.57
2018-04-26T06:56:56.976Z,12.60
2018-04-26T06:59:24.407Z,13.30
2018-04-26T07:01:51.820Z,13.73
2018-04-26T07:04:19.205Z,12.07
2018-04-26T07:06:46.631Z,12.80
2018-04-26T07:09:14.013Z,12.97
2018-04-26T07:11:41.458Z,13.97
2018-04-26T07:14:08.787Z,13.83
2018-04-26T07:16:36.135Z,12.60
2018-04-26T07:19:03.552Z,12.70
2018-04-26T07:21:30.937Z,13.10
2018-04-26T07:23:58.323Z,13.17
2018-04-26T07:26:25.743Z,12.70
2018-04-26T07:28:53.199Z,13.30
2018-04-26T07:31:20.592Z,13.77
2018-04-26T07:33:48.012Z,12.70
2018-04-26T07:36:15.364Z,12.90
2018-04-26T07:38:42.711Z,13.87
2018-04-26T07:41:10.097Z,13.20
2018-04-26T07:43:37.448Z,11.90
2018-04-26T07:46:05.673Z,12.40
2018-04-26T07:48:33.064Z,11.53
2018-04-26T07:51:00.491Z,11.87
2018-04-26T07:53:27.860Z,13.37
2018-04-26T07:55:55.264Z,14.03
2018-04-26T07:58:22.619Z,13.00
2018-04-26T08:00:49.994Z,13.80
2018-04-26T08:03:17.410Z,13.63
2018-04-26T08:05:44.802Z,13.17
2018-04-26T08:08:12.168Z,14.83
2018-04-26T08:10:40.466Z,13.93
2018-04-26T08:13:07.872Z,13.60
2018-04-26T08:15:35.288Z,15.47
2018-04-26T08:18:02.713Z,15.20
2018-04-26T08:20:30.108Z,15.13
2018-04-26T08:22:57.543Z,15.77
2018-04-26T08:25:24.920Z,15.73
2018-04-26T08:27:52.301Z,14.30
2018-04-26T08:30:19.686Z,15.40
2018-04-26T08:32:48.007Z,16.47
2018-04-26T08:35:15.388Z,15.57
2018-04-26T08:37:42.827Z,14.87
2018-04-26T08:40:10.211Z,15.03
2018-04-26T08:42:37.575Z,16.03
2018-04-26T08:45:04.980Z,13.33
2018-04-26T08:47:32.387Z,14.20
2018-04-26T08:49:59.834Z,14.00
2018-04-26T08:52:27.380Z,14.40
2018-04-26T08:54:54.771Z,14.00
2018-04-26T08:57:23.083Z,10.90
2018-04-26T08:59:50.550Z,13.27
2018-04-26T09:02:18.818Z,13.33
2018-04-26T09:04:46.195Z,11.50
2018-04-26T09:07:13.587Z,10.10
2018-04-26T09:09:40.974Z,9.70
2018-04-26T09:12:08.348Z,10.83
2018-04-26T09:14:35.751Z,10.00
2018-04-26T09:17:04.048Z,11.10
2018-04-26T09:19:31.484Z,11.73
2018-04-26T09:21:59.803Z,12.27
2018-04-26T09:24:27.239Z,11.30
2018-04-26T09:26:54.647Z,12.70
2018-04-26T09:29:21.999Z,7.93
2018-04-26T09:31:49.404Z,8.00
2018-04-26T09:34:16.828Z,6.67
2018-04-26T09:36:44.208Z,7.50
2018-04-26T09:39:11.616Z,8.10
2018-04-26T09:41:38.995Z,8.60
2018-04-26T09:44:06.365Z,8.70
2018-04-26T09:46:33.727Z,7.30
2018-04-26T09:49:01.108Z,7.50
2018-04-26T09:51:28.490Z,7.13
2018-04-26T09:53:55.885Z,5.40
2018-04-26T09:56:23.287Z,3.20
2018-04-26T09:58:50.744Z,4.50
2018-04-26T10:01:19.825Z,4.17
2018-04-26T10:03:47.215Z,4.03
2018-04-26T10:06:31.167Z,4.00
2018-04-26T10:08:59.502Z,3.60
2018-04-26T10:11:26.990Z,3.53
2018-04-26T10:13:54.404Z,3.90
2018-04-26T10:16:21.827Z,3.83
2018-04-26T10:18:49.199Z,3.80
2018-04-26T10:21:16.672Z,4.10
2018-04-26T10:23:44.108Z,4.27
2018-04-26T10:26:11.467Z,4.30
2018-04-26T10:28:38.848Z,4.00
2018-04-26T10:31:06.223Z,4.17
2018-04-26T10:33:33.619Z,3.70
2018-04-26T10:36:01.070Z,2.90
2018-04-26T10:38:28.442Z,3.73
2018-04-26T10:40:55.774Z,2.90
2018-04-26T10:43:23.184Z,2.70
2018-04-26T10:45:50.587Z,2.90
2018-04-26T10:48:17.931Z,3.13
2018-04-26T10:50:45.360Z,3.23
2018-04-26T10:53:12.762Z,3.13
2018-04-26T10:55:40.097Z,4.00
2018-04-26T10:58:07.487Z,2.80
2018-04-26T11:00:34.964Z,3.13
2018-04-26T11:03:02.338Z,2.70
2018-04-26T11:05:29.686Z,2.60
2018-04-26T11:07:57.071Z,2.50
2018-04-26T11:10:24.431Z,2.70
2018-04-26T11:12:51.774Z,2.43
2018-04-26T11:15:19.168Z,2.67
2018-04-26T11:17:46.558Z,2.50
2018-04-26T11:20:13.931Z,2.80
2018-04-26T11:22:41.278Z,2.60
2018-04-26T11:25:08.609Z,3.63
2018-04-26T11:27:37.036Z,3.40
2018-04-26T11:30:04.468Z,3.00
2018-04-26T11:32:31.844Z,3.30
2018-04-26T11:34:59.220Z,3.17
2018-04-26T11:37:26.649Z,2.97
2018-04-26T11:39:53.990Z,2.70
2018-04-26T11:42:21.336Z,2.37
2018-04-26T11:44:50.227Z,2.70
2018-04-26T11:47:18.592Z,2.87
2018-04-26T11:49:47.484Z,3.17
2018-04-26T11:52:15.066Z,3.00
2018-04-26T11:54:42.413Z,3.50
2018-04-26T11:57:09.775Z,3.60
2018-04-26T11:59:37.240Z,3.40
2018-04-26T12:02:04.586Z,3.30
2018-04-26T12:04:31.919Z,3.50
2018-04-26T12:06:59.399Z,3.60
2018-04-26T12:09:26.815Z,3.63
2018-04-26T12:11:54.184Z,3.20
2018-04-26T12:14:21.646Z,3.40
2018-04-26T12:16:49.040Z,3.30
2018-04-26T12:19:16.472Z,3.13
2018-04-26T12:21:43.896Z,2.70
2018-04-26T12:24:11.238Z,2.67
2018-04-26T12:26:38.599Z,2.83
2018-04-26T12:29:05.995Z,2.90
2018-04-26T12:31:33.334Z,2.60
2018-04-26T12:34:00.738Z,2.83
2018-04-26T12:36:28.128Z,2.60
2018-04-26T12:38:55.556Z,2.70
2018-04-26T12:41:22.930Z,2.30
2018-04-26T12:43:50.302Z,2.47
2018-04-26T12:46:17.646Z,2.20
2018-04-26T12:48:45.935Z,2.27
2018-04-26T12:51:13.356Z,2.40
2018-04-26T12:53:40.731Z,2.30
2018-04-26T12:56:08.093Z,2.47
2018-04-26T12:58:35.459Z,2.40
2018-04-26T13:01:02.835Z,2.80
2018-04-26T13:03:30.209Z,3.03
2018-04-26T13:05:57.615Z,3.10
2018-04-26T13:08:25.892Z,3.50
2018-04-26T13:10:54.187Z,3.10
2018-04-26T13:13:21.592Z,2.97
2018-04-26T13:15:48.989Z,2.93
2018-04-26T13:18:16.409Z,2.77
2018-04-26T13:20:43.854Z,3.00
2018-04-26T13:23:11.292Z,3.27
2018-04-26T13:25:38.715Z,3.40
2018-04-26T13:28:06.083Z,2.80
2018-04-26T13:30:33.417Z,3.77
2018-04-26T13:33:01.720Z,3.77
2018-04-26T13:35:29.103Z,3.83
2018-04-26T13:37:56.462Z,3.57
2018-04-26T13:40:23.811Z,4.30
2018-04-26T13:42:51.227Z,3.90
2018-04-26T13:45:18.708Z,3.70
2018-04-26T13:47:46.141Z,3.47
2018-04-26T13:50:13.485Z,3.60
2018-04-26T13:52:41.130Z,4.00
2018-04-26T13:55:08.483Z,3.47
2018-04-26T13:57:35.875Z,3.30
2018-04-26T14:00:03.239Z,2.87
2018-04-26T14:02:30.691Z,3.00
2018-04-26T14:04:58.092Z,3.07
2018-04-26T14:07:25.493Z,2.97
2018-04-26T14:09:53.746Z,3.00
2018-04-26T14:12:21.136Z,2.50
2018-04-26T14:14:48.507Z,2.87
2018-04-26T14:17:15.871Z,2.20
2018-04-26T14:19:43.283Z,2.27
2018-04-26T14:22:10.658Z,2.13
2018-04-26T14:24:38.064Z,1.90
2018-04-26T14:27:05.472Z,2.10
2018-04-26T14:29:32.934Z,2.23
2018-04-26T14:32:00.392Z,2.10
2018-04-26T14:34:27.769Z,2.00
2018-04-26T14:36:55.125Z,2.10
2018-04-26T14:39:22.531Z,2.20
2018-04-26T14:41:49.919Z,2.27
2018-04-26T14:44:17.372Z,2.23
2018-04-26T14:46:44.783Z,2.00
2018-04-26T14:49:12.171Z,2.00
2018-04-26T14:51:39.505Z,2.07
2018-04-26T14:54:06.920Z,2.10
2018-04-26T14:56:34.275Z,2.40
2018-04-26T14:59:01.640Z,2.27
2018-04-26T15:01:29.023Z,2.13
2018-04-26T15:03:56.439Z,2.00
2018-04-26T15:06:23.819Z,2.00
2018-04-26T15:08:51.355Z,1.90
2018-04-26T15:11:18.690Z,2.10
2018-04-26T15:13:46.159Z,2.00
2018-04-26T15:16:13.540Z,2.20
2018-04-26T15:18:40.918Z,2.67
2018-04-26T15:21:09.227Z,2.60
2018-04-26T15:23:36.644Z,2.73
2018-04-26T15:26:04.051Z,3.27
2018-04-26T15:28:31.420Z,3.27
2018-04-26T15:30:58.884Z,2.63
2018-04-26T15:33:26.303Z,3.23
2018-04-26T15:35:53.712Z,3.20
2018-04-26T15:38:21.087Z,3.60
2018-04-26T15:40:48.464Z,3.90
2018-04-26T15:43:15.876Z,3.60
2018-04-26T15:45:43.247Z,3.60
2018-04-26T15:48:10.671Z,3.73
2018-04-26T15:50:52.952Z,3.30
2018-04-26T15:53:26.318Z,3.40
2018-04-26T15:55:59.758Z,3.77
2018-04-26T15:58:27.132Z,3.47
2018-04-26T16:01:06.375Z,3.03
2018-04-26T16:03:40.531Z,3.20
2018-04-26T16:06:25.771Z,2.73
2018-04-26T16:09:08.050Z,3.30
2018-04-26T16:11:41.356Z,3.00
2018-04-26T16:14:33.468Z,2.50
2018-04-26T16:17:26.266Z,3.10
2018-04-26T16:20:05.449Z,2.80
2018-04-26T16:22:44.537Z,2.60
2018-04-26T16:25:29.949Z,2.80
2018-04-26T16:27:59.170Z,2.87
2018-04-26T16:30:32.453Z,2.90
2018-04-26T16:33:05.867Z,3.03
2018-04-26T16:35:39.211Z,2.63
2018-04-26T16:38:14.383Z,2.80
2018-04-26T16:40:41.799Z,2.70
2018-04-26T16:43:09.191Z,3.10
2018-04-26T16:45:36.558Z,2.63
2018-04-26T16:48:03.899Z,2.33
2018-04-26T16:50:31.276Z,2.70
2018-04-26T16:52:58.735Z,2.40
2018-04-26T16:55:26.147Z,2.60
2018-04-26T16:57:53.567Z,2.80
2018-04-26T17:00:20.988Z,3.00
2018-04-26T17:02:48.436Z,3.07
2018-04-26T17:05:15.807Z,3.10
2018-04-26T17:07:43.200Z,3.37
2018-04-26T17:10:11.467Z,3.03
2018-04-26T17:12:38.940Z,2.90
2018-04-26T17:15:06.367Z,3.00
2018-04-26T17:17:33.772Z,3.40
2018-04-26T17:20:01.158Z,2.87
2018-04-26T17:22:28.641Z,3.30
2018-04-26T17:24:56.061Z,3.00
2018-04-26T17:27:23.415Z,2.60
2018-04-26T17:29:50.836Z,3.27
2018-04-26T17:32:18.246Z,2.87
2018-04-26T17:34:45.713Z,3.10
2018-04-26T17:37:13.104Z,2.83
2018-04-26T17:39:40.490Z,3.27
2018-04-26T17:42:07.895Z,2.80
2018-04-26T17:44:35.270Z,2.90
2018-04-26T17:47:02.679Z,3.43
2018-04-26T17:49:30.037Z,3.67
2018-04-26T17:51:57.445Z,3.50
2018-04-26T17:54:24.820Z,3.57
2018-04-26T17:56:52.173Z,4.17
2018-04-26T17:59:19.548Z,3.60
2018-04-26T18:01:46.887Z,3.93
2018-04-26T18:04:14.254Z,3.50
2018-04-26T18:06:41.590Z,3.90
2018-04-26T18:09:08.962Z,4.60
2018-04-26T18:11:36.592Z,4.13
2018-04-26T18:14:03.985Z,4.20
2018-04-26T18:16:31.323Z,4.40
2018-04-26T18:18:58.694Z,4.23
2018-04-26T18:21:26.091Z,4.13
2018-04-26T18:23:53.476Z,4.57
2018-04-26T18:26:20.884Z,4.90
2018-04-26T18:28:48.298Z,4.83
2018-04-26T18:31:15.655Z,4.70
2018-04-26T18:33:46.804Z,4.33
2018-04-26T18:36:14.236Z,4.47
2018-04-26T18:38:41.577Z,4.37
2018-04-26T18:41:09.142Z,4.13
2018-04-26T18:43:36.547Z,3.60
2018-04-26T18:46:03.896Z,3.80
2018-04-26T18:48:31.404Z,4.30
2018-04-26T18:50:58.872Z,4.00
2018-04-26T18:53:26.244Z,3.90
2018-04-26T18:55:53.613Z,4.50
2018-04-26T18:58:21.006Z,4.23
2018-04-26T19:00:48.376Z,3.73
2018-04-26T19:03:15.747Z,5.20
2018-04-26T19:05:43.095Z,4.60
2018-04-26T19:08:10.497Z,4.50
2018-04-26T19:10:37.907Z,4.47
2018-04-26T19:13:05.393Z,4.73
2018-04-26T19:15:32.742Z,4.63
2018-04-26T19:18:00.124Z,4.43
2018-04-26T19:20:27.478Z,4.30
2018-04-26T19:22:54.868Z,4.20
2018-04-26T19:25:22.433Z,3.93
2018-04-26T19:27:49.856Z,4.17
2018-04-26T19:30:17.255Z,5.00
2018-04-26T19:32:44.640Z,4.40
2018-04-26T19:35:12.014Z,4.13
2018-04-26T19:37:39.390Z,4.10
2018-04-26T19:40:06.869Z,4.33
2018-04-26T19:42:34.242Z,4.23
2018-04-26T19:45:01.616Z,4.00
2018-04-26T19:47:29.004Z,3.80
2018-04-26T19:49:56.430Z,4.10
2018-04-26T19:52:23.864Z,3.87
2018-04-26T19:54:51.239Z,3.33
2018-04-26T19:57:18.672Z,3.77
2018-04-26T19:59:46.051Z,3.70
2018-04-26T20:02:13.479Z,3.73
2018-04-26T20:04:40.944Z,3.80
2018-04-26T20:07:08.311Z,4.60
2018-04-26T20:09:35.782Z,4.40
2018-04-26T20:12:03.127Z,4.33
2018-04-26T20:14:30.458Z,4.50
2018-04-26T20:16:57.944Z,4.00
2018-04-26T20:19:25.291Z,4.23
2018-04-26T20:21:52.639Z,4.33
2018-04-26T20:24:20.063Z,4.30
2018-04-26T20:26:47.523Z,4.33
2018-04-26T20:29:14.932Z,4.20
2018-04-26T20:31:42.350Z,4.10
2018-04-26T20:34:09.805Z,4.50
2018-04-26T20:36:37.180Z,3.70
2018-04-26T20:39:04.579Z,4.03
2018-04-26T20:41:37.886Z,3.60
2018-04-26T20:44:05.299Z,3.67
2018-04-26T20:46:32.639Z,4.40
2018-04-26T20:49:00.014Z,4.23
2018-04-26T20:51:27.394Z,4.60
2018-04-26T20:53:54.806Z,4.87
2018-04-26T20:56:22.292Z,4.30
2018-04-26T20:58:49.615Z,5.10
2018-04-26T21:01:17.020Z,4.97
2018-04-26T21:03:44.412Z,5.27
2018-04-26T21:06:11.827Z,4.40
2018-04-26T21:08:39.337Z,4.33
2018-04-26T21:11:06.894Z,4.40
2018-04-26T21:13:34.389Z,4.60
2018-04-26T21:16:01.911Z,3.90
2018-04-26T21:18:29.334Z,4.60
2018-04-26T21:20:56.703Z,4.20
2018-04-26T21:23:24.282Z,3.87
2018-04-26T21:25:51.660Z,4.27
2018-04-26T21:28:19.136Z,3.93
2018-04-26T21:30:46.653Z,4.57
2018-04-26T21:33:14.212Z,5.50
2018-04-26T21:35:41.745Z,5.33
2018-04-26T21:38:09.129Z,5.30
2018-04-26T21:40:36.687Z,4.53
2018-04-26T21:43:04.128Z,5.70
2018-04-26T21:45:31.640Z,4.83
2018-04-26T21:47:59.066Z,4.37
2018-04-26T21:50:32.458Z,5.30
2018-04-26T21:53:05.685Z,4.70
2018-04-26T21:55:38.838Z,5.00
2018-04-26T21:58:12.008Z,4.80
2018-04-26T22:00:45.156Z,5.17
2018-04-26T22:03:12.592Z,5.30
2018-04-26T22:05:41.702Z,4.90
2018-04-26T22:08:09.164Z,5.03
2018-04-26T22:10:36.620Z,5.40
2018-04-26T22:13:04.145Z,5.47
2018-04-26T22:15:31.592Z,5.03
2018-04-26T22:17:59.100Z,5.33
2018-04-26T22:20:27.540Z,4.83
2018-04-26T22:22:54.919Z,5.40
2018-04-26T22:25:22.324Z,5.47
2018-04-26T22:27:49.749Z,5.10
2018-04-26T22:30:17.371Z,4.67
2018-04-26T22:32:44.758Z,5.43
2018-04-26T22:35:12.184Z,5.13
2018-04-26T22:37:39.620Z,5.30
2018-04-26T22:40:06.993Z,5.10
2018-04-26T22:42:34.409Z,5.13
2018-04-26T22:45:01.774Z,5.60
2018-04-26T22:47:29.260Z,5.80
2018-04-26T22:49:56.685Z,5.80
2018-04-26T22:52:24.174Z,5.20
2018-04-26T22:54:51.667Z,5.70
2018-04-26T22:57:19.092Z,5.90
2018-04-26T22:59:46.519Z,5.80
2018-04-26T23:02:14.104Z,6.60
2018-04-26T23:04:41.665Z,6.03
2018-04-26T23:07:09.225Z,6.10
2018-04-26T23:09:36.709Z,7.13
2018-04-26T23:12:04.083Z,6.40
2018-04-26T23:14:31.697Z,6.30
2018-04-26T23:16:59.193Z,6.47
2018-04-26T23:19:26.604Z,7.80
2018-04-26T23:21:54.068Z,6.13
2018-04-26T23:24:21.629Z,7.03
2018-04-26T23:26:49.033Z,7.30
2018-04-26T23:29:16.545Z,6.43
2018-04-26T23:31:44.102Z,6.33
2018-04-26T23:34:11.670Z,6.87
2018-04-26T23:36:39.220Z,6.50
2018-04-26T23:39:06.711Z,6.70
2018-04-26T23:41:34.132Z,6.80
2018-04-26T23:44:01.628Z,6.27
2018-04-26T23:46:29.157Z,6.20
2018-04-26T23:48:57.464Z,6.40
2018-04-26T23:51:24.872Z,6.70
2018-04-26T23:53:52.445Z,6.40
2018-04-26T23:56:19.880Z,6.53
2018-04-26T23:58:47.259Z,6.53
